TimeHDT,TemperatureF,Dew PointF,Humidity,Sea Level PressureIn,VisibilityMPH,Wind Direction,Wind SpeedMPH,Gust SpeedMPH,PrecipitationIn,Events,Conditions,WindDirDegrees,DateUTC
12:56 AM,35.1,30.0,82,30.01,10.0,NE,27.6,33.4,N/A,,Overcast,50,2013-03-18 09:56:00
1:56 AM,35.1,28.9,78,30.01,10.0,NE,23.0,32.2,N/A,,Overcast,50,2013-03-18 10:56:00
2:56 AM,35.1,28.9,78,30.01,10.0,NE,20.7,-,N/A,,Overcast,50,2013-03-18 11:56:00
3:56 AM,35.1,30.0,82,30.01,10.0,NE,19.6,28.8,N/A,,Overcast,50,2013-03-18 12:56:00
4:56 AM,35.1,30.9,85,30.01,10.0,NNE,20.7,-,N/A,,Overcast,30,2013-03-18 13:56:00
5:56 AM,35.1,30.9,85,30.01,10.0,NE,23.0,31.1,N/A,,Overcast,40,2013-03-18 14:56:00
6:56 AM,35.1,30.9,85,30.01,10.0,NNE,24.2,-,N/A,,Overcast,20,2013-03-18 15:56:00
7:10 AM,35.6,32.0,87,30.00,10.0,NNE,26.5,-,N/A,,Overcast,30,2013-03-18 16:10:00
7:56 AM,35.1,32.0,89,30.03,10.0,NNE,27.6,33.4,N/A,Rain,Light Rain,20,2013-03-18 16:56:00
8:54 AM,35.6,33.8,93,30.02,6.2,NNE,25.3,-,N/A,,Overcast,20,2013-03-18 17:54:00
8:56 AM,35.1,33.1,92,30.03,8.0,NNE,26.5,-,N/A,,Overcast,20,2013-03-18 17:56:00
9:09 AM,35.6,33.8,93,30.03,6.2,NNE,26.5,-,N/A,,Overcast,20,2013-03-18 18:09:00
9:56 AM,35.1,33.1,92,30.04,10.0,NNE,25.3,33.4,N/A,,Overcast,20,2013-03-18 18:56:00
10:56 AM,35.1,33.1,92,30.04,10.0,NNE,23.0,35.7,N/A,,Overcast,20,2013-03-18 19:56:00
11:29 AM,35.6,33.8,93,30.04,10.0,NNE,21.9,35.7,N/A,,Overcast,20,2013-03-18 20:29:00
11:56 AM,36.0,34.0,93,30.05,10.0,NNE,29.9,34.5,N/A,,Overcast,20,2013-03-18 20:56:00
12:56 PM,36.0,34.0,93,30.06,6.0,North,26.5,31.1,N/A,,Overcast,10,2013-03-18 21:56:00
1:11 PM,35.6,35.6,100,30.06,4.0,North,26.5,32.2,N/A,,Overcast,10,2013-03-18 22:11:00
1:56 PM,36.0,35.1,97,30.06,3.0,North,25.3,34.5,N/A,Snow,Light Snow,10,2013-03-18 22:56:00
2:06 PM,35.6,35.6,100,30.06,2.5,North,27.6,35.7,N/A,,Overcast,10,2013-03-18 23:06:00
2:21 PM,35.6,35.6,100,30.06,-9999.0,North,24.2,33.4,N/A,,Overcast,10,2013-03-18 23:21:00
2:36 PM,35.6,35.6,100,30.06,2.5,North,27.6,34.5,N/A,Snow,Light Snow,10,2013-03-18 23:36:00
2:56 PM,36.0,35.1,97,30.07,2.5,North,26.5,34.5,N/A,Snow,Light Snow,10,2013-03-18 23:56:00
3:34 PM,35.6,35.6,100,30.06,2.5,North,26.5,33.4,N/A,Snow,Light Snow,10,2013-03-19 00:34:00
3:56 PM,36.0,35.1,97,30.06,3.0,North,27.6,35.7,N/A,Snow,Light Snow,10,2013-03-19 00:56:00
4:23 PM,35.6,35.6,100,30.05,-9999.0,North,29.9,36.8,N/A,Snow,Light Snow,10,2013-03-19 01:23:00
4:56 PM,36.0,35.1,97,30.05,4.0,North,27.6,36.8,N/A,,Overcast,10,2013-03-19 01:56:00
5:08 PM,35.6,35.6,100,30.04,5.0,NNE,31.1,38.0,N/A,,Overcast,20,2013-03-19 02:08:00
5:56 PM,36.0,35.1,97,30.04,8.0,NNE,34.5,41.4,N/A,,Overcast,20,2013-03-19 02:56:00
6:43 PM,35.6,33.8,93,30.04,10.0,NNE,29.9,39.1,N/A,,Overcast,20,2013-03-19 03:43:00
6:56 PM,35.1,34.0,96,30.04,10.0,NNE,33.4,39.1,N/A,,Overcast,20,2013-03-19 03:56:00
7:56 PM,35.1,34.0,96,30.04,10.0,NNE,31.1,36.8,N/A,,Overcast,20,2013-03-19 04:56:00
8:56 PM,35.1,34.0,96,30.05,10.0,NNE,29.9,34.5,N/A,,Overcast,20,2013-03-19 05:56:00
9:56 PM,35.1,34.0,96,30.06,10.0,NNE,27.6,34.5,N/A,Rain,Light Rain,20,2013-03-19 06:56:00
10:56 PM,35.1,34.0,96,30.05,10.0,NNE,24.2,-,N/A,,Overcast,30,2013-03-19 07:56:00
11:56 PM,35.1,34.0,96,30.05,10.0,NE,24.2,-,N/A,,Overcast,40,2013-03-19 08:56:00